createdAt,value
2023-04-29T00:00:09.148Z,99.90
2023-04-29T00:02:39.047Z,99.90
2023-04-29T00:05:07.387Z,99.90
2023-04-29T00:07:34.983Z,99.90
2023-04-29T00:10:02.456Z,99.90
2023-04-29T00:12:31.897Z,99.90
2023-04-29T00:15:00.821Z,99.90
2023-04-29T00:17:28.072Z,99.90
2023-04-29T00:19:55.417Z,99.90
2023-04-29T00:22:22.802Z,99.90
2023-04-29T00:24:50.507Z,99.90
2023-04-29T00:27:17.835Z,99.90
2023-04-29T00:29:45.821Z,99.90
2023-04-29T00:32:13.029Z,99.90
2023-04-29T00:34:40.442Z,99.90
2023-04-29T00:37:07.739Z,99.90
2023-04-29T00:39:35.205Z,99.90
2023-04-29T00:42:03.561Z,99.90
2023-04-29T00:44:30.868Z,99.90
2023-04-29T00:46:59.313Z,99.90
2023-04-29T00:49:27.852Z,99.90
2023-04-29T00:51:57.888Z,99.90
2023-04-29T00:54:25.519Z,99.90
2023-04-29T00:56:56.061Z,99.90
2023-04-29T00:59:24.121Z,99.90
2023-04-29T01:01:51.476Z,99.90
2023-04-29T01:04:19.889Z,99.90
2023-04-29T01:07:08.122Z,99.90
2023-04-29T01:09:57.339Z,99.90
2023-04-29T01:12:36.718Z,99.90
2023-04-29T01:15:22.850Z,99.90
2023-04-29T01:18:15.133Z,99.90
2023-04-29T01:20:44.786Z,99.90
2023-04-29T01:23:12.464Z,99.90
2023-04-29T01:25:41.643Z,99.90
2023-04-29T01:28:52.175Z,99.90
2023-04-29T01:31:31.729Z,99.90
2023-04-29T01:34:20.345Z,99.90
2023-04-29T01:37:03.280Z,99.90
2023-04-29T01:40:10.997Z,99.90
2023-04-29T01:42:55.273Z,99.90
2023-04-29T01:45:23.504Z,99.90
2023-04-29T01:47:55.989Z,99.90
2023-04-29T01:50:23.463Z,99.90
2023-04-29T01:52:51.102Z,99.90
2023-04-29T01:55:18.475Z,99.90
2023-04-29T01:57:55.843Z,99.90
2023-04-29T02:00:43.169Z,99.90
2023-04-29T02:03:10.524Z,99.90
2023-04-29T02:05:43.561Z,99.90
2023-04-29T02:08:10.799Z,99.90
2023-04-29T02:10:42.078Z,99.90
2023-04-29T02:13:24.593Z,99.90
2023-04-29T02:15:52.105Z,99.90
2023-04-29T02:18:19.301Z,99.90
2023-04-29T02:20:51.095Z,99.90
2023-04-29T02:23:18.495Z,99.90
2023-04-29T02:25:45.702Z,99.90
2023-04-29T02:28:12.906Z,99.90
2023-04-29T02:30:41.539Z,99.90
2023-04-29T02:33:08.888Z,99.90
2023-04-29T02:35:36.256Z,99.90
2023-04-29T02:38:03.643Z,99.90
2023-04-29T02:40:30.780Z,99.90
2023-04-29T02:42:59.560Z,99.90
2023-04-29T02:45:28.954Z,99.90
2023-04-29T02:47:56.234Z,99.90
2023-04-29T02:50:25.595Z,99.90
2023-04-29T02:52:52.932Z,99.90
2023-04-29T02:55:20.208Z,99.90
2023-04-29T02:57:47.589Z,99.90
2023-04-29T03:00:14.833Z,99.90
2023-04-29T03:02:42.421Z,99.90
2023-04-29T03:05:10.320Z,99.90
2023-04-29T03:07:37.435Z,99.90
2023-04-29T03:10:05.697Z,99.90
2023-04-29T03:12:34.882Z,99.90
2023-04-29T03:15:02.667Z,99.90
2023-04-29T03:17:30.180Z,99.90
2023-04-29T03:19:57.477Z,99.90
2023-04-29T03:22:24.728Z,99.90
2023-04-29T03:24:51.996Z,99.90
2023-04-29T03:27:21.495Z,99.90
2023-04-29T03:29:49.416Z,99.90
2023-04-29T03:32:16.700Z,99.90
2023-04-29T03:34:45.044Z,99.90
2023-04-29T03:37:22.876Z,99.90
2023-04-29T03:39:56.432Z,99.90
2023-04-29T03:42:23.770Z,99.90
2023-04-29T03:44:50.970Z,99.90
2023-04-29T03:47:18.402Z,99.90
2023-04-29T03:49:46.724Z,99.90
2023-04-29T03:52:13.955Z,99.90
2023-04-29T03:54:41.427Z,99.90
2023-04-29T03:57:08.857Z,99.90
2023-04-29T03:59:36.068Z,99.90
2023-04-29T04:02:03.538Z,99.90
2023-04-29T04:04:31.050Z,99.90
2023-04-29T04:06:59.676Z,99.90
2023-04-29T04:09:31.510Z,99.90
2023-04-29T04:11:58.886Z,99.90
2023-04-29T04:14:26.252Z,99.90
2023-04-29T04:16:53.503Z,99.90
2023-04-29T04:19:20.828Z,99.90
2023-04-29T04:21:48.084Z,99.90
2023-04-29T04:24:16.022Z,99.90
2023-04-29T04:26:47.268Z,99.90
2023-04-29T04:29:29.506Z,99.90
2023-04-29T04:32:03.690Z,99.90
2023-04-29T04:34:32.466Z,99.90
2023-04-29T04:37:02.797Z,99.90
2023-04-29T04:39:31.253Z,99.90
2023-04-29T04:41:59.150Z,99.90
2023-04-29T04:44:29.028Z,99.90
2023-04-29T04:47:06.316Z,99.90
2023-04-29T04:49:56.596Z,99.90
2023-04-29T04:52:24.031Z,99.90
2023-04-29T04:55:03.225Z,99.90
2023-04-29T04:57:35.337Z,99.90
2023-04-29T05:00:04.661Z,99.90
2023-04-29T05:02:33.308Z,99.90
2023-04-29T05:05:00.740Z,99.90
2023-04-29T05:07:31.559Z,99.90
2023-04-29T05:10:06.739Z,99.90
2023-04-29T05:12:38.077Z,99.90
2023-04-29T05:15:06.309Z,99.90
2023-04-29T05:17:34.925Z,99.90
2023-04-29T05:20:02.857Z,99.90
2023-04-29T05:22:31.131Z,99.90
2023-04-29T05:25:02.922Z,99.90
2023-04-29T05:27:31.865Z,99.90
2023-04-29T05:29:59.249Z,99.90
2023-04-29T05:32:26.537Z,99.90
2023-04-29T05:34:53.777Z,99.90
2023-04-29T05:37:21.050Z,99.90
2023-04-29T05:40:04.584Z,99.90
2023-04-29T05:42:33.561Z,99.90
2023-04-29T05:45:01.942Z,99.90
2023-04-29T05:47:29.204Z,99.90
2023-04-29T05:49:57.128Z,99.90
2023-04-29T05:52:24.905Z,99.90
2023-04-29T05:54:52.363Z,99.90
2023-04-29T05:57:19.835Z,99.90
2023-04-29T05:59:47.272Z,99.90
2023-04-29T06:02:14.683Z,99.90
2023-04-29T06:04:43.451Z,99.90
2023-04-29T06:07:27.632Z,99.90
2023-04-29T06:10:15.303Z,99.90
2023-04-29T06:12:44.800Z,99.90
2023-04-29T06:15:13.220Z,99.90
2023-04-29T06:17:40.525Z,99.90
2023-04-29T06:20:09.289Z,99.90
2023-04-29T06:22:36.644Z,99.90
2023-04-29T06:25:04.856Z,99.90
2023-04-29T06:27:43.166Z,99.90
2023-04-29T06:30:11.602Z,99.90
2023-04-29T06:32:40.571Z,99.90
2023-04-29T06:35:08.838Z,99.90
2023-04-29T06:37:53.656Z,99.90
2023-04-29T06:40:39.034Z,99.90
2023-04-29T06:43:33.153Z,99.90
2023-04-29T06:46:19.244Z,99.90
2023-04-29T06:48:56.582Z,99.90
2023-04-29T06:51:25.092Z,99.90
2023-04-29T06:53:52.442Z,99.90
2023-04-29T06:56:24.557Z,99.90
2023-04-29T06:58:52.016Z,99.90
2023-04-29T07:01:19.466Z,99.90
2023-04-29T07:03:47.110Z,99.90
2023-04-29T07:06:17.042Z,99.90
2023-04-29T07:08:48.038Z,99.90
2023-04-29T07:11:16.293Z,99.90
2023-04-29T07:13:43.572Z,99.90
2023-04-29T07:16:20.111Z,99.90
2023-04-29T07:18:51.051Z,99.90
2023-04-29T07:21:18.359Z,99.90
2023-04-29T07:23:45.679Z,99.90
2023-04-29T07:26:16.663Z,99.90
2023-04-29T07:28:46.397Z,99.90
2023-04-29T07:31:14.388Z,99.90
2023-04-29T07:33:42.157Z,99.90
2023-04-29T07:36:11.370Z,99.90
2023-04-29T07:38:38.681Z,99.90
2023-04-29T07:41:06.032Z,99.90
2023-04-29T07:43:33.466Z,99.90
2023-04-29T07:46:00.749Z,99.90
2023-04-29T07:48:27.987Z,99.90
2023-04-29T07:50:55.315Z,99.90
2023-04-29T07:53:22.803Z,99.90
2023-04-29T07:55:51.473Z,99.90
2023-04-29T07:58:21.065Z,99.90
2023-04-29T08:00:48.597Z,99.90
2023-04-29T08:03:15.944Z,99.90
2023-04-29T08:05:45.272Z,99.90
2023-04-29T08:08:15.889Z,99.90
2023-04-29T08:10:44.657Z,99.90
2023-04-29T08:13:11.819Z,99.90
2023-04-29T08:15:40.090Z,99.90
2023-04-29T08:18:07.496Z,99.90
2023-04-29T08:20:34.752Z,99.90
2023-04-29T08:23:02.121Z,99.90
2023-04-29T08:25:30.229Z,99.90
2023-04-29T08:27:57.893Z,99.90
2023-04-29T08:30:25.109Z,99.90
2023-04-29T08:32:52.359Z,99.90
2023-04-29T08:35:19.820Z,99.90
2023-04-29T08:37:47.747Z,99.90
2023-04-29T08:40:15.273Z,99.90
2023-04-29T08:42:49.197Z,99.90
2023-04-29T08:45:20.217Z,99.90
2023-04-29T08:47:49.593Z,99.90
2023-04-29T08:50:18.538Z,99.90
2023-04-29T08:52:45.883Z,99.90
2023-04-29T08:55:13.064Z,99.90
2023-04-29T08:57:43.304Z,99.90
2023-04-29T09:00:11.792Z,99.90
2023-04-29T09:02:50.198Z,99.90
2023-04-29T09:05:17.947Z,99.90
2023-04-29T09:07:46.890Z,99.90
2023-04-29T09:10:16.253Z,99.90
2023-04-29T09:12:43.354Z,99.90
2023-04-29T09:15:11.208Z,99.90
2023-04-29T09:17:47.288Z,99.90
2023-04-29T09:20:20.822Z,99.90
2023-04-29T09:22:52.012Z,99.90
2023-04-29T09:25:19.818Z,99.90
2023-04-29T09:27:47.362Z,99.90
2023-04-29T09:30:16.527Z,99.90
2023-04-29T09:32:48.072Z,99.90
2023-04-29T09:35:22.242Z,99.90
2023-04-29T09:37:49.575Z,99.90
2023-04-29T09:40:54.275Z,99.90
2023-04-29T09:43:27.975Z,99.90
2023-04-29T09:45:56.083Z,99.90
2023-04-29T09:48:33.538Z,99.90
2023-04-29T09:51:03.821Z,99.90
2023-04-29T09:53:32.068Z,99.90
2023-04-29T09:56:02.602Z,99.90
2023-04-29T09:58:39.188Z,99.90
2023-04-29T10:01:07.792Z,99.90
2023-04-29T10:03:38.155Z,99.90
2023-04-29T10:06:08.042Z,99.90
2023-04-29T10:08:36.042Z,99.90
2023-04-29T10:11:06.038Z,99.90
2023-04-29T10:13:38.647Z,99.90
2023-04-29T10:16:33.026Z,99.90
2023-04-29T10:19:08.447Z,98.30
2023-04-29T10:21:36.613Z,98.30
2023-04-29T10:24:04.533Z,97.10
2023-04-29T10:26:34.243Z,96.30
2023-04-29T10:29:03.625Z,97.30
2023-04-29T10:31:33.806Z,95.80
2023-04-29T10:34:02.040Z,95.60
2023-04-29T10:36:31.782Z,96.00
2023-04-29T10:39:06.865Z,95.90
2023-04-29T10:41:47.922Z,94.60
2023-04-29T10:44:18.627Z,95.50
2023-04-29T10:46:47.379Z,93.90
2023-04-29T10:49:16.106Z,94.40
2023-04-29T10:51:46.190Z,94.20
2023-04-29T10:54:25.684Z,91.80
2023-04-29T10:56:54.929Z,90.80
2023-04-29T10:59:33.604Z,90.30
2023-04-29T11:02:01.156Z,89.60
2023-04-29T11:04:32.140Z,86.50
2023-04-29T11:07:04.226Z,85.90
2023-04-29T11:09:42.255Z,83.30
2023-04-29T11:12:11.404Z,80.50
2023-04-29T11:14:50.301Z,76.40
2023-04-29T11:17:21.376Z,76.00
2023-04-29T11:19:56.380Z,72.50
2023-04-29T11:22:35.167Z,71.70
2023-04-29T11:25:10.435Z,68.40
2023-04-29T11:27:42.622Z,66.80
2023-04-29T11:30:10.743Z,67.80
2023-04-29T11:32:41.760Z,65.20
2023-04-29T11:35:18.231Z,64.90
2023-04-29T11:37:48.952Z,65.80
2023-04-29T11:40:17.274Z,63.80
2023-04-29T11:42:49.622Z,65.20
2023-04-29T11:45:21.019Z,63.60
2023-04-29T11:47:51.643Z,63.50
2023-04-29T11:50:20.868Z,61.50
2023-04-29T11:52:50.253Z,59.90
2023-04-29T11:55:19.225Z,60.10
2023-04-29T11:57:58.874Z,58.60
2023-04-29T12:00:26.684Z,57.50
2023-04-29T12:02:54.178Z,57.20
2023-04-29T12:05:21.951Z,55.60
2023-04-29T12:07:51.182Z,55.90
2023-04-29T12:10:18.867Z,54.10
2023-04-29T12:12:47.695Z,53.80
2023-04-29T12:15:15.964Z,53.00
2023-04-29T12:17:44.619Z,52.70
2023-04-29T12:20:13.013Z,51.60
2023-04-29T12:22:43.873Z,50.50
2023-04-29T12:25:12.375Z,49.50
2023-04-29T12:27:43.112Z,49.60
2023-04-29T12:30:11.529Z,49.10
2023-04-29T12:32:39.246Z,49.30
2023-04-29T12:35:16.627Z,50.20
2023-04-29T12:37:48.592Z,51.00
2023-04-29T12:40:17.961Z,50.10
2023-04-29T12:42:45.378Z,49.50
2023-04-29T12:45:34.688Z,48.20
2023-04-29T12:48:07.223Z,47.60
2023-04-29T12:50:39.203Z,47.30
2023-04-29T12:53:09.000Z,48.40
2023-04-29T12:55:38.489Z,48.80
2023-04-29T12:58:07.457Z,48.50
2023-04-29T13:00:37.354Z,46.50
2023-04-29T13:03:06.038Z,47.20
2023-04-29T13:05:33.888Z,45.60
2023-04-29T13:08:02.461Z,45.50
2023-04-29T13:10:30.301Z,44.60
2023-04-29T13:12:57.763Z,44.30
2023-04-29T13:15:26.045Z,44.10
2023-04-29T13:17:54.351Z,43.30
2023-04-29T13:20:22.568Z,42.90
2023-04-29T13:22:50.674Z,42.40
2023-04-29T13:25:18.302Z,42.50
2023-04-29T13:27:45.885Z,42.90
2023-04-29T13:30:13.948Z,43.90
2023-04-29T13:32:46.300Z,44.40
2023-04-29T13:35:18.886Z,43.50
2023-04-29T13:37:48.458Z,41.80
2023-04-29T13:40:20.366Z,40.60
2023-04-29T13:42:50.823Z,39.30
2023-04-29T13:45:29.106Z,37.10
2023-04-29T13:48:08.488Z,36.20
2023-04-29T13:56:42.054Z,41.40
2023-04-29T13:59:30.486Z,44.40
2023-04-29T14:04:02.610Z,53.50
2023-04-29T14:06:32.505Z,54.20
2023-04-29T14:09:03.527Z,56.60
2023-04-29T14:11:36.596Z,58.50
2023-04-29T14:14:04.552Z,59.80
2023-04-29T14:16:32.454Z,61.40
2023-04-29T14:19:02.069Z,61.40
2023-04-29T14:21:33.331Z,61.90
2023-04-29T14:24:04.701Z,62.70
2023-04-29T14:26:32.236Z,64.00
2023-04-29T14:29:00.513Z,62.80
2023-04-29T14:31:30.910Z,64.20
2023-04-29T14:33:58.985Z,64.70
2023-04-29T14:36:26.821Z,65.10
2023-04-29T14:38:54.470Z,66.20
2023-04-29T14:41:22.119Z,65.30
2023-04-29T14:43:49.726Z,65.60
2023-04-29T14:46:17.790Z,65.60
2023-04-29T14:48:46.203Z,65.90
2023-04-29T14:51:13.773Z,66.20
2023-04-29T14:53:41.208Z,66.70
2023-04-29T14:56:08.847Z,67.00
2023-04-29T14:58:36.301Z,66.50
2023-04-29T15:01:03.761Z,66.80
2023-04-29T15:03:31.949Z,67.10
2023-04-29T15:06:03.681Z,67.20
2023-04-29T15:08:31.593Z,66.80
2023-04-29T15:10:59.064Z,66.30
2023-04-29T15:13:26.580Z,66.70
2023-04-29T15:15:54.174Z,67.20
2023-04-29T15:18:23.345Z,67.00
2023-04-29T15:20:50.929Z,66.20
2023-04-29T15:23:18.467Z,66.80
2023-04-29T15:25:46.424Z,65.90
2023-04-29T15:28:13.849Z,66.70
2023-04-29T15:30:41.277Z,65.90
2023-04-29T15:33:08.738Z,66.70
2023-04-29T15:35:36.871Z,67.80
2023-04-29T15:38:04.263Z,68.00
2023-04-29T15:40:31.670Z,68.30
2023-04-29T15:42:59.033Z,69.20
2023-04-29T15:45:26.416Z,70.10
2023-04-29T15:47:53.933Z,71.20
2023-04-29T15:50:21.748Z,71.70
2023-04-29T15:52:52.570Z,72.30
2023-04-29T15:55:21.025Z,72.00
2023-04-29T15:57:51.428Z,72.90
2023-04-29T16:00:19.253Z,73.50
2023-04-29T16:02:46.727Z,74.70
2023-04-29T16:05:14.371Z,75.10
2023-04-29T16:07:41.758Z,75.90
2023-04-29T16:10:09.994Z,77.20
2023-04-29T16:12:37.958Z,77.80
2023-04-29T16:15:07.606Z,78.50
2023-04-29T16:17:35.423Z,78.80
2023-04-29T16:20:03.784Z,79.00
2023-04-29T16:22:31.500Z,79.20
2023-04-29T16:24:59.213Z,78.40
2023-04-29T16:27:32.593Z,78.20
2023-04-29T16:30:00.543Z,78.60
2023-04-29T16:32:29.187Z,78.80
2023-04-29T16:34:56.702Z,77.80
2023-04-29T16:37:24.172Z,77.70
2023-04-29T16:39:51.972Z,77.30
2023-04-29T16:42:19.719Z,76.20
2023-04-29T16:44:47.229Z,76.00
2023-04-29T16:47:14.775Z,75.10
2023-04-29T16:49:42.616Z,75.20
2023-04-29T16:52:10.289Z,75.00
2023-04-29T16:54:37.865Z,75.10
2023-04-29T16:57:05.612Z,75.30
2023-04-29T16:59:33.588Z,75.70
2023-04-29T17:02:03.904Z,76.50
2023-04-29T17:04:31.875Z,76.50
2023-04-29T17:07:01.366Z,77.20
2023-04-29T17:09:28.825Z,77.70
2023-04-29T17:11:56.383Z,77.80
2023-04-29T17:14:23.957Z,77.90
2023-04-29T17:16:51.425Z,78.00
2023-04-29T17:19:19.398Z,78.60
2023-04-29T17:21:47.436Z,79.60
2023-04-29T17:24:14.976Z,79.00
2023-04-29T17:26:42.364Z,79.40
2023-04-29T17:29:12.182Z,79.60
2023-04-29T17:31:46.132Z,79.50
2023-04-29T17:34:25.554Z,80.00
2023-04-29T17:36:53.996Z,80.90
2023-04-29T17:39:21.586Z,81.00
2023-04-29T17:41:48.984Z,81.60
2023-04-29T17:44:16.420Z,81.90
2023-04-29T17:46:44.116Z,82.30
2023-04-29T17:49:11.840Z,83.10
2023-04-29T17:51:39.415Z,82.70
2023-04-29T17:54:08.405Z,83.40
2023-04-29T17:56:35.979Z,84.80
2023-04-29T17:59:11.182Z,85.40
2023-04-29T18:01:38.783Z,85.70
2023-04-29T18:04:06.652Z,86.30
2023-04-29T18:06:34.142Z,86.10
2023-04-29T18:09:01.792Z,85.80
2023-04-29T18:11:29.366Z,85.80
2023-04-29T18:13:57.052Z,85.20
2023-04-29T18:16:24.833Z,85.10
2023-04-29T18:18:54.534Z,85.10
2023-04-29T18:21:25.486Z,85.30
2023-04-29T18:23:53.718Z,86.10
2023-04-29T18:26:21.993Z,85.80
2023-04-29T18:28:49.855Z,86.40
2023-04-29T18:31:18.100Z,87.00
2023-04-29T18:33:45.791Z,87.90
2023-04-29T18:36:14.313Z,88.90
2023-04-29T18:38:42.256Z,89.40
2023-04-29T18:41:09.816Z,90.10
2023-04-29T18:43:37.366Z,90.30
2023-04-29T18:46:04.933Z,90.80
2023-04-29T18:48:34.254Z,91.00
2023-04-29T18:51:04.343Z,91.30
2023-04-29T18:53:32.073Z,91.80
2023-04-29T18:55:59.600Z,92.00
2023-04-29T18:58:27.581Z,92.30
2023-04-29T19:00:57.701Z,92.70
2023-04-29T19:03:25.895Z,92.90
2023-04-29T19:05:53.604Z,93.30
2023-04-29T19:08:21.252Z,93.80
2023-04-29T19:10:48.898Z,94.20
2023-04-29T19:13:17.089Z,94.50
2023-04-29T19:15:44.808Z,94.80
2023-04-29T19:18:12.639Z,95.10
2023-04-29T19:20:41.644Z,95.70
2023-04-29T19:23:09.509Z,96.30
2023-04-29T19:25:37.512Z,96.50
2023-04-29T19:28:05.446Z,96.80
2023-04-29T19:30:33.696Z,97.00
2023-04-29T19:33:01.909Z,97.20
2023-04-29T19:35:29.647Z,97.30
2023-04-29T19:37:57.408Z,97.70
2023-04-29T19:40:25.227Z,97.30
2023-04-29T19:42:53.003Z,97.30
2023-04-29T19:45:21.255Z,96.50
2023-04-29T19:47:50.240Z,96.40
2023-04-29T19:50:17.853Z,96.60
2023-04-29T19:52:46.202Z,96.90
2023-04-29T19:55:14.781Z,97.10
2023-04-29T19:57:42.517Z,96.80
2023-04-29T20:00:13.833Z,96.50
2023-04-29T20:02:42.394Z,96.60
2023-04-29T20:05:11.595Z,96.30
2023-04-29T20:07:40.554Z,95.90
2023-04-29T20:10:10.159Z,95.80
2023-04-29T20:12:38.271Z,95.60
2023-04-29T20:15:07.288Z,95.50
2023-04-29T20:17:35.414Z,95.40
2023-04-29T20:20:03.677Z,95.50
2023-04-29T20:22:31.713Z,95.60
2023-04-29T20:24:59.433Z,95.60
2023-04-29T20:27:27.627Z,95.70
2023-04-29T20:29:56.044Z,95.80
2023-04-29T20:32:24.067Z,96.00
2023-04-29T20:34:54.175Z,96.00
2023-04-29T20:37:22.238Z,96.30
2023-04-29T20:39:50.155Z,96.60
2023-04-29T20:42:17.960Z,96.80
2023-04-29T20:44:45.824Z,97.20
2023-04-29T20:47:13.386Z,97.60
2023-04-29T20:49:40.978Z,97.80
2023-04-29T20:52:08.480Z,98.00
2023-04-29T20:54:36.148Z,98.30
2023-04-29T20:57:05.712Z,98.30
2023-04-29T20:59:33.983Z,98.30
2023-04-29T21:02:01.759Z,98.30
2023-04-29T21:04:29.494Z,98.40
2023-04-29T21:06:57.251Z,98.50
2023-04-29T21:09:24.924Z,98.50
2023-04-29T21:11:52.492Z,98.60
2023-04-29T21:14:20.035Z,98.60
2023-04-29T21:16:47.497Z,98.10
2023-04-29T21:19:14.975Z,97.40
2023-04-29T21:21:42.360Z,97.30
2023-04-29T21:24:10.196Z,96.70
2023-04-29T21:26:37.697Z,96.50
2023-04-29T21:29:05.250Z,96.30
2023-04-29T21:31:33.275Z,96.20
2023-04-29T21:34:00.888Z,96.00
2023-04-29T21:36:28.643Z,96.10
2023-04-29T21:38:56.179Z,96.20
2023-04-29T21:41:27.418Z,96.20
2023-04-29T21:43:59.595Z,96.20
2023-04-29T21:46:33.497Z,96.30
2023-04-29T21:49:02.579Z,96.50
2023-04-29T21:51:31.738Z,96.90
2023-04-29T21:53:59.172Z,97.10
2023-04-29T21:56:27.120Z,97.40
2023-04-29T21:58:54.612Z,97.70
2023-04-29T22:01:40.488Z,98.10
2023-04-29T22:04:08.550Z,98.20
2023-04-29T22:06:36.944Z,98.80
2023-04-29T22:09:04.898Z,99.20
2023-04-29T22:11:33.078Z,99.70
2023-04-29T22:14:00.982Z,99.90
2023-04-29T22:16:28.936Z,99.90
2023-04-29T22:18:57.649Z,99.90
2023-04-29T22:21:25.339Z,99.90
2023-04-29T22:23:52.986Z,99.90
2023-04-29T22:26:20.592Z,99.90
2023-04-29T22:28:52.650Z,99.90
2023-04-29T22:31:20.085Z,99.90
2023-04-29T22:33:47.364Z,99.90
2023-04-29T22:36:14.782Z,99.90
2023-04-29T22:38:42.034Z,99.90
2023-04-29T22:41:10.082Z,99.90
2023-04-29T22:43:40.023Z,99.90
2023-04-29T22:46:07.314Z,99.90
2023-04-29T22:48:34.553Z,99.90
2023-04-29T22:51:03.745Z,99.90
2023-04-29T22:53:30.982Z,99.90
2023-04-29T22:55:59.634Z,99.90
2023-04-29T22:58:26.863Z,99.90
2023-04-29T23:00:56.906Z,99.90
2023-04-29T23:03:25.324Z,99.90
2023-04-29T23:05:57.824Z,99.90
2023-04-29T23:08:26.409Z,99.90
2023-04-29T23:10:53.979Z,99.90
2023-04-29T23:13:21.281Z,99.90
2023-04-29T23:15:48.633Z,99.90
2023-04-29T23:18:16.479Z,99.90
2023-04-29T23:20:47.909Z,99.90
2023-04-29T23:23:15.156Z,99.90
2023-04-29T23:25:43.130Z,99.90
2023-04-29T23:28:10.284Z,99.90
2023-04-29T23:30:37.506Z,99.90
2023-04-29T23:33:04.710Z,99.90
2023-04-29T23:35:32.432Z,99.90
2023-04-29T23:37:59.842Z,99.90
2023-04-29T23:40:27.101Z,99.90
2023-04-29T23:42:54.298Z,99.90
2023-04-29T23:45:21.657Z,99.90
2023-04-29T23:47:49.114Z,99.90
2023-04-29T23:50:16.542Z,99.90
2023-04-29T23:52:43.856Z,99.90
2023-04-29T23:55:11.056Z,99.90
2023-04-29T23:57:38.359Z,99.90
